map of LPM home
Great Circle Mapper logo
LPM - Airport
Location
City:  Lamap, Malekula Island, Malampa, Vanuatu
ICAO / IATA:NVSL / LPM

Details
Type:Airport (Aerodrome, Airfield)
Latitude:1627'S (-16.454)
Longitude:16749'E (167.823)
Elevation:7 ft (2 m)
Variation:11.12E (WMM2015 magnetic declination)
0.03 annual change
Runways:unknown number
Longest:2755 ft (840 m)

Time
Time Zone:UTC+11
Local Time:

Weather
TAF:NVSL 010430Z 0106/0112 VRB04KT 9999 SCT020 BKN040 INTER 0106/0112 8000 -TSRA SCT010 BKN018 FEW025CB

Related Locations
Nearby:
Farthest:KFA: 12395 mi / 19948 km
Kiffa, MR

Find:

   beyond  
but within

Other Information
Maps:
NOTAMs:
Links:
Sources:

  
flag of Vanuatu   

Sectional Chart

Flight Planning
at skyvector.com

Satellite Image

Google Maps Satellite View

 

Copyright © 2004-2015 Karl L. Swartz. All rights reserved.
The Great Circle Mapper name and logo are trademarks of the Great Circle Mapper.
All other trademarks mentioned herein belong to their respective owners.
Please see credits for attibutions and further copyright information.

  Follow gcmap on Facebook Follow gcmap on Twitter Follow gcmap on Google+

hCard Microformat

Geo Microformat